createdAt,value
2018-04-19T00:04:56.525Z,18.06
2018-04-19T00:05:56.534Z,18.04
2018-04-19T00:07:50.023Z,17.92
2018-04-19T00:08:49.485Z,17.97
2018-04-19T00:10:42.461Z,17.87
2018-04-19T00:11:42.450Z,17.84
2018-04-19T00:13:35.431Z,17.79
2018-04-19T00:14:35.401Z,17.82
2018-04-19T00:16:28.386Z,17.74
2018-04-19T00:17:28.367Z,17.76
2018-04-19T00:19:21.318Z,17.73
2018-04-19T00:20:21.315Z,17.76
2018-04-19T00:22:14.813Z,17.64
2018-04-19T00:23:14.790Z,17.66
2018-04-19T00:25:07.739Z,17.67
2018-04-19T00:26:07.747Z,17.69
2018-04-19T00:28:00.727Z,17.71
2018-04-19T00:29:00.699Z,17.69
2018-04-19T00:30:53.715Z,17.59
2018-04-19T00:31:53.659Z,17.57
2018-04-19T00:33:46.616Z,17.53
2018-04-19T00:34:46.612Z,17.44
2018-04-19T00:36:39.608Z,17.41
2018-04-19T00:37:39.573Z,17.46
2018-04-19T00:39:32.533Z,17.46
2018-04-19T00:40:32.527Z,17.50
2018-04-19T00:42:25.545Z,17.46
2018-04-19T00:43:25.487Z,17.36
2018-04-19T00:45:18.437Z,17.47
2018-04-19T00:46:18.448Z,17.36
2018-04-19T00:48:11.455Z,17.38
2018-04-19T00:49:11.401Z,17.38
2018-04-19T00:51:04.385Z,17.41
2018-04-19T00:52:04.357Z,17.25
2018-04-19T00:53:57.324Z,17.26
2018-04-19T00:54:57.320Z,17.38
2018-04-19T00:56:50.304Z,17.41
2018-04-19T00:57:50.274Z,17.30
2018-04-19T00:59:43.233Z,17.40
2018-04-19T01:00:43.238Z,17.40
2018-04-19T01:02:36.221Z,17.41
2018-04-19T01:03:36.186Z,17.44
2018-04-19T01:05:29.144Z,17.38
2018-04-19T01:06:29.148Z,17.38
2018-04-19T01:08:22.155Z,17.35
2018-04-19T01:09:22.103Z,17.35
2018-04-19T01:11:15.091Z,17.30
2018-04-19T01:12:15.057Z,17.36
2018-04-19T01:14:08.839Z,17.35
2018-04-19T01:15:08.835Z,17.38
2018-04-19T01:17:01.841Z,17.38
2018-04-19T01:18:01.791Z,17.26
2018-04-19T01:19:01.801Z,17.26
2018-04-19T01:20:01.803Z,17.38
2018-04-19T01:21:01.811Z,17.23
2018-04-19T01:22:01.814Z,17.26
2018-04-19T01:23:01.818Z,17.28
2018-04-19T01:24:01.817Z,17.28
2018-04-19T01:25:01.835Z,17.23
2018-04-19T01:26:01.834Z,17.30
2018-04-19T01:27:01.839Z,17.29
2018-04-19T01:28:01.837Z,17.20
2018-04-19T01:29:01.843Z,17.26
2018-04-19T01:30:01.848Z,17.26
2018-04-19T01:31:01.855Z,17.25
2018-04-19T01:32:01.870Z,17.32
2018-04-19T01:33:01.866Z,17.20
2018-04-19T01:34:01.865Z,17.23
2018-04-19T01:35:01.871Z,17.22
2018-04-19T01:36:01.877Z,17.28
2018-04-19T01:37:01.889Z,17.22
2018-04-19T01:38:01.902Z,17.17
2018-04-19T01:39:01.891Z,17.22
2018-04-19T01:40:01.895Z,17.28
2018-04-19T01:41:01.907Z,17.22
2018-04-19T01:42:01.905Z,17.23
2018-04-19T01:43:01.906Z,17.22
2018-04-19T01:44:01.919Z,17.18
2018-04-19T01:45:01.919Z,17.18
2018-04-19T01:46:01.923Z,17.20
2018-04-19T01:47:01.927Z,17.11
2018-04-19T01:48:01.997Z,17.11
2018-04-19T01:49:01.941Z,17.06
2018-04-19T01:50:01.945Z,17.06
2018-04-19T01:51:01.954Z,17.08
2018-04-19T01:52:01.954Z,17.11
2018-04-19T01:53:01.949Z,17.07
2018-04-19T01:54:01.956Z,17.04
2018-04-19T01:55:01.966Z,17.10
2018-04-19T01:56:01.967Z,17.13
2018-04-19T01:57:01.976Z,17.14
2018-04-19T01:58:01.978Z,17.11
2018-04-19T01:59:01.984Z,17.10
2018-04-19T02:00:01.980Z,16.99
2018-04-19T02:01:01.995Z,17.03
2018-04-19T02:02:01.990Z,17.00
2018-04-19T02:03:02.001Z,16.96
2018-04-19T02:04:02.003Z,17.00
2018-04-19T02:05:02.004Z,17.03
2018-04-19T02:06:02.004Z,16.96
2018-04-19T02:07:02.009Z,17.00
2018-04-19T02:08:02.014Z,16.90
2018-04-19T02:09:02.031Z,16.95
2018-04-19T02:10:02.040Z,16.96
2018-04-19T02:11:02.031Z,16.98
2018-04-19T02:12:02.036Z,16.89
2018-04-19T02:13:02.040Z,16.85
2018-04-19T02:14:02.052Z,16.86
2018-04-19T02:15:02.055Z,16.88
2018-04-19T02:16:02.052Z,16.88
2018-04-19T02:17:02.057Z,16.86
2018-04-19T02:18:02.061Z,16.80
2018-04-19T02:19:02.078Z,16.83
2018-04-19T02:20:02.082Z,16.86
2018-04-19T02:21:02.082Z,16.86
2018-04-19T02:22:02.107Z,16.75
2018-04-19T02:23:02.083Z,16.78
2018-04-19T02:24:02.100Z,16.74
2018-04-19T02:25:02.089Z,16.71
2018-04-19T02:26:02.101Z,16.65
2018-04-19T02:27:02.101Z,16.71
2018-04-19T02:28:02.113Z,16.70
2018-04-19T02:29:02.119Z,16.71
2018-04-19T02:30:02.121Z,16.74
2018-04-19T02:31:02.136Z,16.71
2018-04-19T02:32:02.121Z,16.65
2018-04-19T02:33:02.132Z,16.70
2018-04-19T02:34:02.129Z,16.70
2018-04-19T02:35:02.142Z,16.65
2018-04-19T02:36:02.149Z,16.62
2018-04-19T02:37:02.142Z,16.63
2018-04-19T02:38:02.148Z,16.68
2018-04-19T02:39:02.156Z,16.59
2018-04-19T02:40:02.157Z,16.63
2018-04-19T02:41:02.164Z,16.62
2018-04-19T02:42:02.166Z,16.62
2018-04-19T02:43:02.173Z,16.62
2018-04-19T02:44:02.170Z,16.59
2018-04-19T02:45:02.181Z,16.60
2018-04-19T02:46:02.180Z,16.58
2018-04-19T02:47:02.191Z,16.56
2018-04-19T02:48:02.189Z,16.58
2018-04-19T02:49:02.197Z,16.55
2018-04-19T02:50:02.200Z,16.53
2018-04-19T02:51:02.203Z,16.53
2018-04-19T02:52:02.209Z,16.56
2018-04-19T02:53:02.223Z,16.52
2018-04-19T02:54:02.218Z,16.48
2018-04-19T02:55:02.223Z,16.44
2018-04-19T02:56:02.230Z,16.50
2018-04-19T02:57:02.266Z,16.49
2018-04-19T02:58:02.233Z,16.38
2018-04-19T02:59:02.242Z,16.44
2018-04-19T03:00:02.259Z,16.37
2018-04-19T03:01:02.244Z,16.38
2018-04-19T03:02:02.250Z,16.40
2018-04-19T03:03:02.266Z,16.34
2018-04-19T03:04:02.272Z,16.33
2018-04-19T03:05:02.296Z,16.25
2018-04-19T03:06:02.272Z,16.34
2018-04-19T03:07:02.283Z,16.34
2018-04-19T03:08:02.284Z,16.37
2018-04-19T03:09:02.273Z,16.37
2018-04-19T03:10:02.277Z,16.26
2018-04-19T03:11:02.288Z,16.37
2018-04-19T03:12:02.287Z,16.20
2018-04-19T03:13:02.298Z,16.16
2018-04-19T03:14:02.297Z,16.25
2018-04-19T03:15:02.305Z,16.23
2018-04-19T03:16:02.302Z,16.22
2018-04-19T03:17:02.317Z,16.23
2018-04-19T03:18:02.314Z,16.18
2018-04-19T03:19:02.318Z,16.18
2018-04-19T03:20:02.321Z,16.09
2018-04-19T03:21:02.330Z,16.07
2018-04-19T03:22:02.327Z,16.00
2018-04-19T03:23:02.339Z,15.96
2018-04-19T03:24:02.340Z,15.88
2018-04-19T03:25:02.356Z,15.93
2018-04-19T03:26:02.347Z,15.81
2018-04-19T03:27:02.352Z,15.76
2018-04-19T03:28:02.365Z,15.72
2018-04-19T03:29:02.421Z,15.75
2018-04-19T03:30:02.361Z,15.72
2018-04-19T03:31:02.372Z,15.60
2018-04-19T03:32:02.379Z,15.66
2018-04-19T03:33:02.378Z,15.61
2018-04-19T03:34:02.382Z,15.52
2018-04-19T03:35:02.401Z,15.54
2018-04-19T03:36:02.402Z,15.52
2018-04-19T03:37:02.407Z,15.49
2018-04-19T03:38:02.408Z,15.49
2018-04-19T03:39:02.428Z,15.49
2018-04-19T03:40:02.422Z,15.49
2018-04-19T03:41:02.425Z,15.42
2018-04-19T03:42:02.430Z,15.49
2018-04-19T03:43:02.444Z,15.54
2018-04-19T03:44:02.414Z,15.60
2018-04-19T03:45:02.465Z,15.52
2018-04-19T03:46:02.462Z,15.52
2018-04-19T03:47:02.474Z,15.52
2018-04-19T03:48:02.449Z,15.49
2018-04-19T03:49:02.447Z,15.49
2018-04-19T03:50:02.442Z,15.52
2018-04-19T03:51:02.446Z,15.63
2018-04-19T03:52:02.502Z,15.52
2018-04-19T03:53:02.457Z,15.56
2018-04-19T03:54:02.455Z,15.49
2018-04-19T03:55:02.465Z,15.42
2018-04-19T03:56:02.462Z,15.42
2018-04-19T03:57:02.474Z,15.51
2018-04-19T03:58:02.477Z,15.45
2018-04-19T03:59:02.486Z,15.46
2018-04-19T04:00:02.491Z,15.38
2018-04-19T04:01:02.531Z,15.45
2018-04-19T04:02:02.500Z,15.48
2018-04-19T04:03:02.505Z,15.45
2018-04-19T04:04:02.509Z,15.48
2018-04-19T04:05:02.523Z,15.42
2018-04-19T04:06:02.516Z,15.48
2018-04-19T04:07:02.520Z,15.49
2018-04-19T04:08:02.520Z,15.57
2018-04-19T04:09:02.541Z,15.52
2018-04-19T04:10:02.542Z,15.52
2018-04-19T04:11:02.545Z,15.49
2018-04-19T04:12:02.574Z,15.41
2018-04-19T04:13:02.552Z,15.38
2018-04-19T04:14:02.566Z,15.42
2018-04-19T04:15:02.572Z,15.48
2018-04-19T04:16:02.540Z,15.49
2018-04-19T04:17:02.572Z,15.52
2018-04-19T04:18:02.559Z,15.42
2018-04-19T04:19:02.585Z,15.41
2018-04-19T04:20:02.558Z,15.45
2018-04-19T04:21:02.595Z,15.42
2018-04-19T04:22:02.569Z,15.33
2018-04-19T04:23:02.566Z,15.31
2018-04-19T04:24:02.578Z,15.31
2018-04-19T04:25:02.579Z,15.33
2018-04-19T04:26:02.588Z,15.31
2018-04-19T04:27:02.586Z,15.35
2018-04-19T04:28:02.588Z,15.31
2018-04-19T04:29:02.603Z,15.19
2018-04-19T04:30:02.617Z,15.15
2018-04-19T04:31:02.614Z,15.19
2018-04-19T04:32:02.609Z,15.17
2018-04-19T04:33:02.609Z,15.15
2018-04-19T04:34:02.615Z,15.11
2018-04-19T04:35:02.616Z,15.11
2018-04-19T04:36:02.623Z,15.20
2018-04-19T04:37:04.736Z,15.12
2018-04-19T04:38:05.988Z,15.11
2018-04-19T04:39:02.634Z,15.09
2018-04-19T04:40:02.640Z,15.06
2018-04-19T04:41:02.636Z,15.09
2018-04-19T04:42:02.640Z,14.99
2018-04-19T04:43:02.650Z,15.06
2018-04-19T04:44:02.731Z,15.06
2018-04-19T04:45:02.683Z,15.05
2018-04-19T04:46:02.656Z,15.09
2018-04-19T04:47:02.668Z,15.02
2018-04-19T04:48:02.658Z,15.05
2018-04-19T04:49:02.673Z,15.05
2018-04-19T04:50:02.673Z,15.08
2018-04-19T04:51:02.674Z,15.11
2018-04-19T04:52:02.681Z,15.11
2018-04-19T04:53:02.679Z,15.17
2018-04-19T04:54:02.711Z,15.24
2018-04-19T04:55:02.690Z,15.20
2018-04-19T04:56:02.712Z,15.31
2018-04-19T04:57:04.335Z,15.36
2018-04-19T04:58:02.696Z,15.38
2018-04-19T04:59:02.710Z,15.38
2018-04-19T05:00:02.706Z,15.43
2018-04-19T05:01:02.721Z,15.46
2018-04-19T05:02:03.332Z,15.38
2018-04-19T05:03:04.893Z,15.41
2018-04-19T05:04:07.016Z,15.49
2018-04-19T05:05:03.615Z,15.46
2018-04-19T05:06:02.736Z,15.46
2018-04-19T05:07:06.336Z,15.51
2018-04-19T05:08:06.020Z,15.52
2018-04-19T05:09:02.742Z,15.64
2018-04-19T05:10:02.754Z,15.57
2018-04-19T05:11:02.778Z,15.63
2018-04-19T05:12:02.752Z,15.63
2018-04-19T05:13:02.767Z,15.60
2018-04-19T05:14:02.767Z,15.70
2018-04-19T05:15:57.209Z,15.68
2018-04-19T05:16:57.170Z,15.68
2018-04-19T05:18:50.131Z,15.79
2018-04-19T05:19:50.130Z,15.86
2018-04-19T05:21:46.085Z,15.96
2018-04-19T05:22:46.052Z,15.94
2018-04-19T05:23:46.057Z,16.00
2018-04-19T05:24:46.075Z,16.01
2018-04-19T05:25:46.059Z,16.07
2018-04-19T05:26:46.070Z,16.03
2018-04-19T05:27:46.080Z,16.09
2018-04-19T05:28:46.084Z,16.16
2018-04-19T05:29:46.084Z,16.22
2018-04-19T05:30:46.080Z,16.11
2018-04-19T05:31:47.118Z,16.16
2018-04-19T05:32:46.101Z,16.15
2018-04-19T05:33:46.122Z,16.16
2018-04-19T05:34:46.115Z,16.27
2018-04-19T05:35:46.101Z,16.33
2018-04-19T05:36:46.111Z,16.35
2018-04-19T05:37:46.107Z,16.41
2018-04-19T05:38:46.118Z,16.44
2018-04-19T05:39:46.117Z,16.44
2018-04-19T05:40:46.119Z,16.55
2018-04-19T05:41:46.135Z,16.55
2018-04-19T05:42:46.132Z,16.55
2018-04-19T05:43:46.135Z,16.63
2018-04-19T05:44:46.279Z,16.62
2018-04-19T05:45:46.148Z,16.70
2018-04-19T05:46:46.145Z,16.58
2018-04-19T05:47:46.154Z,16.67
2018-04-19T05:48:46.158Z,16.68
2018-04-19T05:49:46.155Z,16.78
2018-04-19T05:50:46.174Z,16.70
2018-04-19T05:51:46.200Z,16.83
2018-04-19T05:52:46.228Z,16.86
2018-04-19T05:53:46.180Z,16.89
2018-04-19T05:54:46.194Z,16.89
2018-04-19T05:55:46.192Z,17.00
2018-04-19T05:56:46.189Z,16.98
2018-04-19T05:57:46.194Z,16.98
2018-04-19T05:58:46.195Z,17.00
2018-04-19T05:59:46.207Z,17.08
2018-04-19T06:00:46.213Z,17.23
2018-04-19T06:01:47.100Z,17.22
2018-04-19T06:02:46.221Z,17.66
2018-04-19T06:03:46.221Z,18.90
2018-04-19T06:04:46.226Z,20.43
2018-04-19T06:05:46.230Z,21.64
2018-04-19T06:06:46.238Z,22.54
2018-04-19T06:07:46.244Z,23.24
2018-04-19T06:08:46.253Z,23.92
2018-04-19T06:09:46.260Z,24.60
2018-04-19T06:10:46.263Z,24.69
2018-04-19T06:11:46.262Z,24.94
2018-04-19T06:12:46.272Z,24.94
2018-04-19T06:13:46.281Z,25.30
2018-04-19T06:14:46.291Z,25.53
2018-04-19T06:15:46.295Z,25.82
2018-04-19T06:16:46.304Z,26.37
2018-04-19T06:17:46.354Z,26.32
2018-04-19T06:18:46.331Z,26.44
2018-04-19T06:19:47.269Z,25.97
2018-04-19T06:20:46.346Z,25.91
2018-04-19T06:21:46.378Z,25.86
2018-04-19T06:22:46.376Z,26.20
2018-04-19T06:23:46.382Z,26.67
2018-04-19T06:24:46.390Z,26.73
2018-04-19T06:25:46.414Z,27.33
2018-04-19T06:26:46.418Z,27.58
2018-04-19T06:27:46.436Z,27.76
2018-04-19T06:28:46.445Z,28.01
2018-04-19T06:29:46.452Z,28.13
2018-04-19T06:30:46.479Z,28.70
2018-04-19T06:31:46.479Z,28.91
2018-04-19T06:32:46.492Z,29.37
2018-04-19T06:33:47.410Z,29.75
2018-04-19T06:34:46.874Z,29.92
2018-04-19T06:36:39.562Z,30.37
2018-04-19T06:37:39.479Z,30.61
2018-04-19T06:39:32.967Z,30.96
2018-04-19T06:40:32.455Z,31.12
2018-04-19T06:42:25.405Z,31.15
2018-04-19T06:43:25.399Z,31.36
2018-04-19T06:45:18.356Z,31.70
2018-04-19T06:46:18.363Z,31.54
2018-04-19T06:48:11.325Z,31.65
2018-04-19T06:49:11.314Z,32.00
2018-04-19T06:51:04.286Z,32.11
2018-04-19T06:52:04.270Z,32.33
2018-04-19T06:53:57.338Z,32.11
2018-04-19T06:54:57.333Z,31.99
2018-04-19T06:56:50.303Z,31.62
2018-04-19T06:57:50.308Z,31.95
2018-04-19T06:59:43.228Z,32.55
2018-04-19T07:00:43.238Z,32.79
2018-04-19T07:02:36.217Z,33.27
2018-04-19T07:03:36.204Z,33.52
2018-04-19T07:05:29.141Z,32.33
2018-04-19T07:06:29.157Z,32.13
2018-04-19T07:08:22.141Z,32.03
2018-04-19T07:09:22.138Z,31.92
2018-04-19T07:11:15.089Z,31.96
2018-04-19T07:12:15.075Z,32.15
2018-04-19T07:14:08.012Z,31.64
2018-04-19T07:15:08.036Z,31.87
2018-04-19T07:17:01.076Z,31.73
2018-04-19T07:18:00.994Z,31.80
2018-04-19T07:19:53.926Z,32.55
2018-04-19T07:20:54.055Z,32.71
2018-04-19T07:22:46.911Z,32.36
2018-04-19T07:23:46.899Z,32.52
2018-04-19T07:25:39.837Z,33.23
2018-04-19T07:26:39.861Z,33.57
2018-04-19T07:28:32.824Z,34.00
2018-04-19T07:29:32.821Z,33.76
2018-04-19T07:30:32.836Z,33.74
2018-04-19T07:31:32.856Z,33.87
2018-04-19T07:32:32.883Z,34.20
2018-04-19T07:33:32.902Z,34.27
2018-04-19T07:34:32.930Z,34.42
2018-04-19T07:35:32.950Z,34.77
2018-04-19T07:36:32.969Z,34.61
2018-04-19T07:37:32.992Z,34.34
2018-04-19T07:38:33.022Z,34.23
2018-04-19T07:39:33.043Z,34.07
2018-04-19T07:40:33.058Z,34.32
2018-04-19T07:41:33.086Z,34.50
2018-04-19T07:42:33.108Z,34.48
2018-04-19T07:43:33.128Z,34.91
2018-04-19T07:44:33.149Z,34.72
2018-04-19T07:45:33.176Z,34.48
2018-04-19T07:46:33.202Z,34.69
2018-04-19T07:47:33.225Z,34.38
2018-04-19T07:48:33.242Z,34.19
2018-04-19T07:49:33.266Z,33.87
2018-04-19T07:50:33.289Z,33.43
2018-04-19T07:51:33.356Z,33.43
2018-04-19T07:52:33.332Z,33.42
2018-04-19T07:53:33.354Z,33.03
2018-04-19T07:54:33.384Z,33.11
2018-04-19T07:55:33.404Z,32.93
2018-04-19T07:56:33.516Z,33.27
2018-04-19T07:57:33.512Z,33.31
2018-04-19T07:58:33.470Z,33.74
2018-04-19T07:59:33.505Z,34.02
2018-04-19T08:00:33.534Z,34.09
2018-04-19T08:01:33.533Z,34.20
2018-04-19T08:02:33.559Z,34.11
2018-04-19T08:03:33.583Z,33.97
2018-04-19T08:04:33.603Z,34.22
2018-04-19T08:05:33.624Z,34.35
2018-04-19T08:06:33.671Z,34.48
2018-04-19T08:07:33.674Z,34.34
2018-04-19T08:08:33.703Z,34.27
2018-04-19T08:09:33.718Z,34.19
2018-04-19T08:10:33.744Z,34.20
2018-04-19T08:11:33.773Z,34.45
2018-04-19T08:12:33.823Z,34.77
2018-04-19T08:13:33.817Z,35.11
2018-04-19T08:14:33.835Z,35.62
2018-04-19T08:15:33.865Z,35.86
2018-04-19T08:16:33.887Z,36.29
2018-04-19T08:17:33.914Z,36.30
2018-04-19T08:18:33.937Z,36.41
2018-04-19T08:19:33.966Z,36.52
2018-04-19T08:20:34.005Z,36.17
2018-04-19T08:21:34.000Z,36.01
2018-04-19T08:22:34.027Z,36.06
2018-04-19T08:23:34.050Z,36.01
2018-04-19T08:24:34.085Z,35.99
2018-04-19T08:25:34.099Z,36.38
2018-04-19T08:26:34.130Z,36.27
2018-04-19T08:27:34.142Z,36.56
2018-04-19T08:28:34.175Z,36.17
2018-04-19T08:29:34.199Z,35.25
2018-04-19T08:30:34.228Z,35.17
2018-04-19T08:31:34.252Z,34.45
2018-04-19T08:32:34.264Z,34.54
2018-04-19T08:33:34.290Z,35.02
2018-04-19T08:34:34.322Z,35.13
2018-04-19T08:35:34.337Z,35.28
2018-04-19T08:36:34.373Z,35.08
2018-04-19T08:37:34.411Z,35.29
2018-04-19T08:38:34.420Z,35.39
2018-04-19T08:39:34.437Z,35.77
2018-04-19T08:40:34.468Z,36.07
2018-04-19T08:41:34.486Z,35.52
2018-04-19T08:42:34.518Z,35.29
2018-04-19T08:43:34.537Z,34.96
2018-04-19T08:44:34.618Z,35.07
2018-04-19T08:45:34.719Z,35.37
2018-04-19T08:46:34.621Z,35.51
2018-04-19T08:47:34.644Z,35.99
2018-04-19T08:48:34.660Z,36.24
2018-04-19T08:49:34.682Z,36.63
2018-04-19T08:50:34.710Z,36.98
2018-04-19T08:51:34.736Z,36.11
2018-04-19T08:52:34.756Z,36.11
2018-04-19T08:53:34.781Z,36.23
2018-04-19T08:54:34.809Z,36.49
2018-04-19T08:55:34.839Z,36.41
2018-04-19T08:56:34.854Z,36.54
2018-04-19T08:57:34.875Z,36.64
2018-04-19T08:58:34.909Z,36.70
2018-04-19T08:59:34.928Z,36.58
2018-04-19T09:00:34.963Z,36.80
2018-04-19T09:01:34.985Z,36.91
2018-04-19T09:02:34.998Z,36.99
2018-04-19T09:03:35.025Z,37.17
2018-04-19T09:04:35.049Z,37.07
2018-04-19T09:05:35.094Z,36.94
2018-04-19T09:06:35.106Z,36.31
2018-04-19T09:07:35.130Z,35.92
2018-04-19T09:08:35.148Z,35.89
2018-04-19T09:09:35.176Z,35.85
2018-04-19T09:10:35.198Z,35.36
2018-04-19T09:11:35.224Z,35.35
2018-04-19T09:12:35.251Z,35.40
2018-04-19T09:13:35.277Z,35.11
2018-04-19T09:14:35.296Z,34.26
2018-04-19T09:15:35.324Z,34.00
2018-04-19T09:16:35.344Z,34.00
2018-04-19T09:17:35.367Z,34.23
2018-04-19T09:18:35.395Z,34.66
2018-04-19T09:19:35.410Z,34.39
2018-04-19T09:20:35.439Z,34.20
2018-04-19T09:21:35.466Z,33.98
2018-04-19T09:22:35.481Z,33.78
2018-04-19T09:23:35.517Z,33.57
2018-04-19T09:24:35.535Z,33.42
2018-04-19T09:25:35.554Z,33.30
2018-04-19T09:26:35.579Z,33.61
2018-04-19T09:27:35.611Z,33.61
2018-04-19T09:28:35.626Z,33.98
2018-04-19T09:29:35.649Z,34.29
2018-04-19T09:30:35.671Z,34.81
2018-04-19T09:31:35.695Z,35.06
2018-04-19T09:32:35.717Z,35.17
2018-04-19T09:33:35.740Z,35.55
2018-04-19T09:34:35.766Z,35.67
2018-04-19T09:35:35.787Z,35.69
2018-04-19T09:36:35.815Z,35.35
2018-04-19T09:37:35.830Z,35.29
2018-04-19T09:38:35.860Z,35.25
2018-04-19T09:39:35.926Z,35.33
2018-04-19T09:40:35.904Z,35.42
2018-04-19T09:41:35.921Z,35.30
2018-04-19T09:42:35.948Z,35.21
2018-04-19T09:43:35.975Z,34.94
2018-04-19T09:44:35.993Z,34.74
2018-04-19T09:45:36.019Z,34.89
2018-04-19T09:46:36.086Z,35.17
2018-04-19T09:47:36.059Z,35.18
2018-04-19T09:48:36.087Z,35.30
2018-04-19T09:49:36.117Z,35.44
2018-04-19T09:50:36.133Z,35.52
2018-04-19T09:51:36.150Z,34.92
2018-04-19T09:52:36.180Z,34.96
2018-04-19T09:53:36.205Z,34.80
2018-04-19T09:54:36.222Z,34.83
2018-04-19T09:55:36.270Z,34.88
2018-04-19T09:56:36.268Z,35.06
2018-04-19T09:57:36.290Z,35.23
2018-04-19T09:58:36.338Z,35.50
2018-04-19T09:59:36.340Z,35.66
2018-04-19T10:00:36.356Z,35.77
2018-04-19T10:01:36.385Z,36.04
2018-04-19T10:02:36.415Z,35.99
2018-04-19T10:03:36.438Z,35.95
2018-04-19T10:04:36.457Z,35.67
2018-04-19T10:05:36.480Z,35.37
2018-04-19T10:06:36.498Z,35.44
2018-04-19T10:07:36.526Z,34.89
2018-04-19T10:08:36.547Z,34.27
2018-04-19T10:09:36.564Z,34.08
2018-04-19T10:10:36.593Z,34.08
2018-04-19T10:11:36.608Z,34.24
2018-04-19T10:12:36.640Z,34.53
2018-04-19T10:13:36.664Z,34.63
2018-04-19T10:14:36.686Z,34.94
2018-04-19T10:15:36.703Z,35.15
2018-04-19T10:16:36.745Z,35.25
2018-04-19T10:17:36.748Z,35.36
2018-04-19T10:18:36.773Z,35.60
2018-04-19T10:19:36.798Z,35.15
2018-04-19T10:20:36.819Z,34.74
2018-04-19T10:21:36.849Z,34.36
2018-04-19T10:22:36.868Z,34.29
2018-04-19T10:23:36.898Z,34.35
2018-04-19T10:24:36.914Z,34.24
2018-04-19T10:25:36.929Z,34.44
2018-04-19T10:26:36.955Z,34.79
2018-04-19T10:27:36.994Z,34.61
2018-04-19T10:28:37.017Z,34.63
2018-04-19T10:29:37.027Z,34.34
2018-04-19T10:30:37.059Z,34.23
2018-04-19T10:31:37.064Z,33.70
2018-04-19T10:32:37.090Z,33.79
2018-04-19T10:33:37.156Z,34.04
2018-04-19T10:34:37.150Z,34.26
2018-04-19T10:35:37.171Z,34.20
2018-04-19T10:36:37.182Z,33.86
2018-04-19T10:37:37.210Z,33.87
2018-04-19T10:38:37.219Z,33.68
2018-04-19T10:39:37.239Z,33.74
2018-04-19T10:40:37.305Z,33.57
2018-04-19T10:41:37.325Z,33.61
2018-04-19T10:42:37.430Z,33.65
2018-04-19T10:43:37.340Z,33.78
2018-04-19T10:44:37.363Z,33.89
2018-04-19T10:45:37.376Z,34.01
2018-04-19T10:46:37.397Z,34.23
2018-04-19T10:47:37.450Z,33.98
2018-04-19T10:48:37.458Z,34.11
2018-04-19T10:49:37.474Z,34.00
2018-04-19T10:50:37.495Z,34.01
2018-04-19T10:51:37.517Z,34.24
2018-04-19T10:52:37.525Z,34.32
2018-04-19T10:53:37.554Z,34.38
2018-04-19T10:54:37.606Z,34.51
2018-04-19T10:55:37.614Z,34.08
2018-04-19T10:56:37.627Z,34.01
2018-04-19T10:57:37.648Z,34.05
2018-04-19T10:58:37.676Z,34.20
2018-04-19T10:59:37.681Z,34.19
2018-04-19T11:00:37.705Z,34.22
2018-04-19T11:01:37.757Z,34.29
2018-04-19T11:02:37.761Z,34.39
2018-04-19T11:03:37.773Z,34.46
2018-04-19T11:04:37.796Z,34.32
2018-04-19T11:05:37.872Z,34.32
2018-04-19T11:06:37.829Z,34.46
2018-04-19T11:07:37.851Z,34.57
2018-04-19T11:08:37.940Z,34.50
2018-04-19T11:09:37.913Z,34.36
2018-04-19T11:10:37.922Z,34.38
2018-04-19T11:11:38.099Z,34.29
2018-04-19T11:12:37.963Z,34.09
2018-04-19T11:13:37.982Z,33.82
2018-04-19T11:14:38.000Z,33.61
2018-04-19T11:15:38.061Z,33.26
2018-04-19T11:16:38.060Z,32.99
2018-04-19T11:17:38.065Z,32.69
2018-04-19T11:18:38.100Z,32.39
2018-04-19T11:19:38.116Z,32.35
2018-04-19T11:20:38.124Z,32.40
2018-04-19T11:21:38.145Z,32.64
2018-04-19T11:22:38.203Z,32.76
2018-04-19T11:23:38.210Z,32.67
2018-04-19T11:24:38.224Z,32.43
2018-04-19T11:25:38.244Z,32.44
2018-04-19T11:26:38.255Z,32.37
2018-04-19T11:27:38.273Z,32.42
2018-04-19T11:28:38.296Z,32.29
2018-04-19T11:29:38.312Z,32.29
2018-04-19T11:30:38.335Z,32.15
2018-04-19T11:31:38.365Z,32.00
2018-04-19T11:32:38.387Z,31.64
2018-04-19T11:33:38.409Z,31.54
2018-04-19T11:34:38.430Z,31.27
2018-04-19T11:35:38.442Z,31.24
2018-04-19T11:36:38.490Z,31.45
2018-04-19T11:37:38.467Z,31.49
2018-04-19T11:38:38.491Z,31.58
2018-04-19T11:39:38.629Z,31.62
2018-04-19T11:40:38.530Z,31.57
2018-04-19T11:41:38.544Z,31.64
2018-04-19T11:42:38.567Z,31.45
2018-04-19T11:43:38.585Z,31.17
2018-04-19T11:44:38.600Z,31.06
2018-04-19T11:45:38.617Z,30.78
2018-04-19T11:46:38.631Z,30.65
2018-04-19T11:47:38.657Z,30.47
2018-04-19T11:48:38.669Z,30.49
2018-04-19T11:49:38.692Z,30.64
2018-04-19T11:50:38.721Z,30.68
2018-04-19T11:51:38.726Z,30.80
2018-04-19T11:52:38.734Z,30.94
2018-04-19T11:53:38.755Z,30.87
2018-04-19T11:54:38.784Z,30.80
2018-04-19T11:55:38.794Z,30.50
2018-04-19T11:56:38.807Z,30.43
2018-04-19T11:57:38.880Z,30.37
2018-04-19T11:58:38.841Z,30.31
2018-04-19T11:59:38.883Z,30.29
2018-04-19T12:00:38.877Z,30.05
2018-04-19T12:01:38.916Z,30.07
2018-04-19T12:02:38.946Z,29.90
2018-04-19T12:03:38.956Z,29.90
2018-04-19T12:04:38.946Z,29.82
2018-04-19T12:05:38.956Z,29.78
2018-04-19T12:06:38.988Z,29.77
2018-04-19T12:07:38.997Z,29.77
2018-04-19T12:08:39.041Z,29.92
2018-04-19T12:09:39.018Z,29.99
2018-04-19T12:10:39.044Z,30.15
2018-04-19T12:11:39.064Z,30.16
2018-04-19T12:12:39.070Z,29.96
2018-04-19T12:13:39.279Z,29.93
2018-04-19T12:14:39.101Z,29.92
2018-04-19T12:15:39.118Z,29.74
2018-04-19T12:16:39.138Z,29.68
2018-04-19T12:17:39.139Z,29.74
2018-04-19T12:18:39.149Z,29.71
2018-04-19T12:19:39.175Z,29.63
2018-04-19T12:20:39.179Z,29.53
2018-04-19T12:21:39.199Z,29.45
2018-04-19T12:22:39.215Z,29.49
2018-04-19T12:23:39.237Z,29.52
2018-04-19T12:24:39.238Z,29.57
2018-04-19T12:25:39.348Z,29.62
2018-04-19T12:26:39.277Z,29.53
2018-04-19T12:27:39.331Z,29.55
2018-04-19T12:28:39.298Z,29.62
2018-04-19T12:29:39.378Z,29.60
2018-04-19T12:30:39.334Z,29.70
2018-04-19T12:31:39.344Z,29.57
2018-04-19T12:32:39.357Z,29.63
2018-04-19T12:33:39.463Z,29.40
2018-04-19T12:34:39.380Z,29.26
2018-04-19T12:35:39.398Z,29.19
2018-04-19T12:36:39.411Z,29.15
2018-04-19T12:37:39.510Z,29.07
2018-04-19T12:38:39.443Z,29.04
2018-04-19T12:39:39.453Z,29.06
2018-04-19T12:40:39.468Z,29.11
2018-04-19T12:41:39.480Z,29.19
2018-04-19T12:42:39.495Z,29.19
2018-04-19T12:43:39.508Z,29.25
2018-04-19T12:44:39.520Z,29.29
2018-04-19T12:45:39.537Z,29.35
2018-04-19T12:46:39.546Z,29.41
2018-04-19T12:47:39.557Z,29.52
2018-04-19T12:48:39.579Z,29.60
2018-04-19T12:49:39.584Z,29.57
2018-04-19T12:50:39.599Z,29.59
2018-04-19T12:51:39.617Z,29.60
2018-04-19T12:52:39.628Z,29.60
2018-04-19T12:53:39.646Z,29.59
2018-04-19T12:54:39.653Z,29.65
2018-04-19T12:55:39.662Z,29.65
2018-04-19T12:56:39.686Z,29.43
2018-04-19T12:57:39.689Z,29.45
2018-04-19T12:58:39.712Z,29.38
2018-04-19T12:59:39.722Z,29.29
2018-04-19T13:00:39.734Z,29.16
2018-04-19T13:01:39.769Z,29.04
2018-04-19T13:02:39.751Z,29.03
2018-04-19T13:03:39.765Z,28.97
2018-04-19T13:04:39.784Z,29.15
2018-04-19T13:05:39.798Z,29.18
2018-04-19T13:06:39.810Z,29.07
2018-04-19T13:07:39.824Z,29.22
2018-04-19T13:08:39.900Z,29.07
2018-04-19T13:09:39.841Z,29.01
2018-04-19T13:10:39.864Z,29.04
2018-04-19T13:11:39.869Z,28.97
2018-04-19T13:12:39.900Z,28.87
2018-04-19T13:13:39.901Z,28.85
2018-04-19T13:14:39.908Z,28.82
2018-04-19T13:15:39.938Z,28.91
2018-04-19T13:16:39.936Z,28.93
2018-04-19T13:17:39.985Z,29.04
2018-04-19T13:18:39.968Z,29.16
2018-04-19T13:19:39.976Z,29.26
2018-04-19T13:20:40.105Z,29.33
2018-04-19T13:21:40.029Z,29.35
2018-04-19T13:22:40.057Z,29.53
2018-04-19T13:23:40.024Z,29.43
2018-04-19T13:24:40.043Z,29.37
2018-04-19T13:25:40.190Z,29.28
2018-04-19T13:26:40.158Z,29.29
2018-04-19T13:27:40.201Z,29.03
2018-04-19T13:28:40.249Z,29.10
2018-04-19T13:29:40.196Z,29.16
2018-04-19T13:30:40.253Z,29.00
2018-04-19T13:31:40.226Z,28.87
2018-04-19T13:32:40.250Z,28.93
2018-04-19T13:33:40.268Z,28.91
2018-04-19T13:34:40.250Z,28.96
2018-04-19T13:35:40.318Z,28.96
2018-04-19T13:36:40.295Z,28.95
2018-04-19T13:37:40.296Z,28.93
2018-04-19T13:38:40.315Z,28.91